createdAt,value
2018-07-12T00:00:29.309Z,100270.33
2018-07-12T00:02:56.543Z,100266.23
2018-07-12T00:05:22.776Z,100263.59
2018-07-12T00:07:49.067Z,100263.88
2018-07-12T00:10:15.279Z,100261.88
2018-07-12T00:12:41.390Z,100263.88
2018-07-12T00:15:08.192Z,100265.02
2018-07-12T00:17:34.339Z,100268.97
2018-07-12T00:20:01.211Z,100278.95
2018-07-12T00:22:27.360Z,100278.25
2018-07-12T00:24:53.508Z,100279.67
2018-07-12T00:27:19.658Z,100275.16
2018-07-12T00:29:46.878Z,100275.86
2018-07-12T00:32:13.703Z,100270.89
2018-07-12T00:34:39.800Z,100275.77
2018-07-12T00:37:05.975Z,100263.73
2018-07-12T00:39:32.166Z,100264.96
2018-07-12T00:41:58.309Z,100267.49
2018-07-12T00:44:24.467Z,100263.23
2018-07-12T00:46:54.312Z,100270.20
2018-07-12T00:49:21.175Z,100267.39
2018-07-12T00:51:47.331Z,100271.64
2018-07-12T00:54:13.517Z,100268.77
2018-07-12T00:56:39.723Z,100274.28
2018-07-12T00:59:05.880Z,100277.03
2018-07-12T01:01:32.186Z,100273.14
2018-07-12T01:03:59.443Z,100269.12
2018-07-12T01:06:25.674Z,100270.94
2018-07-12T01:08:51.820Z,100275.64
2018-07-12T01:11:18.008Z,100268.11
2018-07-12T01:13:46.694Z,100266.98
2018-07-12T01:16:15.891Z,100275.14
2018-07-12T01:18:42.247Z,100275.68
2018-07-12T01:21:08.440Z,100272.88
2018-07-12T01:23:36.604Z,100265.77
2018-07-12T01:26:05.822Z,100266.63
2018-07-12T01:28:33.680Z,100265.09
2018-07-12T01:30:59.968Z,100264.10
2018-07-12T01:33:27.210Z,100274.54
2018-07-12T01:35:53.497Z,100267.05
2018-07-12T01:38:21.710Z,100271.03
2018-07-12T01:40:49.728Z,100266.69
2018-07-12T01:43:16.675Z,100262.26
2018-07-12T01:45:42.810Z,100264.04
2018-07-12T01:48:08.984Z,100268.14
2018-07-12T01:50:35.100Z,100264.70
2018-07-12T01:53:02.220Z,100268.08
2018-07-12T01:55:28.355Z,100262.52
2018-07-12T01:57:55.234Z,100268.20
2018-07-12T02:00:23.422Z,100271.20
2018-07-12T02:02:49.574Z,100257.42
2018-07-12T02:05:16.038Z,100264.45
2018-07-12T02:07:42.271Z,100258.73
2018-07-12T02:10:09.496Z,100258.89
2018-07-12T02:12:35.700Z,100255.75
2018-07-12T02:15:02.886Z,100256.05
2018-07-12T02:17:33.676Z,100258.27
2018-07-12T02:20:00.931Z,100261.17
2018-07-12T02:22:30.149Z,100263.94
2018-07-12T02:24:57.348Z,100265.78
2018-07-12T02:27:26.448Z,100258.02
2018-07-12T02:29:52.638Z,100255.78
2018-07-12T02:32:19.857Z,100257.72
2018-07-12T02:34:46.021Z,100256.95
2018-07-12T02:37:13.233Z,100256.49
2018-07-12T02:39:42.347Z,100254.67
2018-07-12T02:42:09.283Z,100256.89
2018-07-12T02:44:36.467Z,100260.64
2018-07-12T02:47:02.745Z,100257.53
2018-07-12T02:49:28.873Z,100258.41
2018-07-12T02:51:55.015Z,100256.55
2018-07-12T02:54:21.166Z,100260.81
2018-07-12T02:56:47.340Z,100262.01
2018-07-12T02:59:18.716Z,100254.98
2018-07-12T03:01:46.813Z,100253.86
2018-07-12T03:04:12.943Z,100257.09
2018-07-12T03:06:39.126Z,100255.77
2018-07-12T03:09:06.478Z,100251.57
2018-07-12T03:11:34.566Z,100252.45
2018-07-12T03:14:00.744Z,100259.83
2018-07-12T03:16:26.921Z,100265.47
2018-07-12T03:18:55.200Z,100264.36
2018-07-12T03:21:24.396Z,100261.45
2018-07-12T03:23:50.559Z,100261.66
2018-07-12T03:26:16.705Z,100262.22
2018-07-12T03:28:42.862Z,100263.38
2018-07-12T03:31:11.090Z,100258.34
2018-07-12T03:33:38.751Z,100272.77
2018-07-12T03:36:04.919Z,100266.63
2018-07-12T03:38:32.170Z,100266.11
2018-07-12T03:40:59.256Z,100265.10
2018-07-12T03:43:25.420Z,100266.70
2018-07-12T03:45:51.591Z,100273.53
2018-07-12T03:48:19.252Z,100268.51
2018-07-12T03:50:47.450Z,100283.34
2018-07-12T03:53:14.275Z,100282.72
2018-07-12T03:55:40.438Z,100278.19
2018-07-12T03:58:08.357Z,100276.02
2018-07-12T04:00:37.496Z,100273.08
2018-07-12T04:03:04.744Z,100277.02
2018-07-12T04:05:32.836Z,100275.74
2018-07-12T04:08:02.486Z,100280.30
2018-07-12T04:10:32.723Z,100277.53
2018-07-12T04:12:59.901Z,100283.08
2018-07-12T04:15:26.758Z,100279.36
2018-07-12T04:17:53.833Z,100280.88
2018-07-12T04:20:20.006Z,100277.84
2018-07-12T04:22:46.717Z,100275.55
2018-07-12T04:25:12.857Z,100276.56
2018-07-12T04:27:40.091Z,100276.82
2018-07-12T04:30:08.288Z,100274.60
2018-07-12T04:32:34.403Z,100273.52
2018-07-12T04:35:00.481Z,100279.33
2018-07-12T04:37:26.550Z,100277.98
2018-07-12T04:39:52.640Z,100279.20
2018-07-12T04:42:18.695Z,100277.84
2018-07-12T04:44:45.779Z,100282.70
2018-07-12T04:47:11.855Z,100279.66
2018-07-12T04:49:37.955Z,100277.73
2018-07-12T04:52:04.038Z,100278.84
2018-07-12T04:54:30.127Z,100273.17
2018-07-12T04:56:56.723Z,100279.55
2018-07-12T04:59:22.927Z,100277.17
2018-07-12T05:01:49.328Z,100280.92
2018-07-12T05:04:15.459Z,100281.93
2018-07-12T05:06:41.536Z,100281.17
2018-07-12T05:09:08.746Z,100284.13
2018-07-12T05:11:34.824Z,100283.35
2018-07-12T05:14:04.221Z,100289.23
2018-07-12T05:16:30.299Z,100293.08
2018-07-12T05:18:56.382Z,100290.91
2018-07-12T05:21:22.466Z,100292.17
2018-07-12T05:23:48.802Z,100296.43
2018-07-12T05:26:14.883Z,100302.27
2018-07-12T05:28:40.973Z,100300.80
2018-07-12T05:31:07.107Z,100300.33
2018-07-12T05:33:33.177Z,100299.75
2018-07-12T05:36:00.080Z,100304.89
2018-07-12T05:38:27.287Z,100306.04
2018-07-12T05:40:56.476Z,100304.72
2018-07-12T05:43:23.393Z,100310.20
2018-07-12T05:45:50.400Z,100309.92
2018-07-12T05:48:17.324Z,100311.64
2018-07-12T05:50:49.684Z,100304.78
2018-07-12T05:53:17.867Z,100312.94
2018-07-12T05:55:44.770Z,100313.83
2018-07-12T05:58:11.740Z,100315.34
2018-07-12T06:00:38.863Z,100323.65
2018-07-12T06:03:05.720Z,100326.39
2018-07-12T06:05:32.615Z,100321.72
2018-07-12T06:07:59.527Z,100319.69
2018-07-12T06:10:27.398Z,100328.30
2018-07-12T06:12:54.292Z,100330.25
2018-07-12T06:15:21.190Z,100338.67
2018-07-12T06:17:48.101Z,100340.73
2018-07-12T06:20:15.043Z,100346.42
2018-07-12T06:22:42.022Z,100345.89
2018-07-12T06:25:08.892Z,100348.23
2018-07-12T06:27:36.740Z,100349.97
2018-07-12T06:30:04.551Z,100350.98
2018-07-12T06:32:31.376Z,100358.10
2018-07-12T06:34:58.273Z,100356.17
2018-07-12T06:37:25.163Z,100364.49
2018-07-12T06:39:53.057Z,100363.50
2018-07-12T06:42:19.951Z,100372.63
2018-07-12T06:44:46.867Z,100367.58
2018-07-12T06:47:14.743Z,100375.57
2018-07-12T06:49:41.680Z,100379.53
2018-07-12T06:52:08.670Z,100374.62
2018-07-12T06:54:35.554Z,100383.35
2018-07-12T06:57:02.587Z,100375.69
2018-07-12T06:59:29.500Z,100382.48
2018-07-12T07:01:56.475Z,100386.56
2018-07-12T07:04:23.364Z,100386.56
2018-07-12T07:06:50.256Z,100392.20
2018-07-12T07:09:17.169Z,100394.08
2018-07-12T07:11:44.094Z,100394.41
2018-07-12T07:14:11.027Z,100394.88
2018-07-12T07:16:37.927Z,100394.39
2018-07-12T07:19:04.868Z,100401.09
2018-07-12T07:21:31.966Z,100396.19
2018-07-12T07:23:59.032Z,100397.39
2018-07-12T07:26:25.992Z,100390.17
2018-07-12T07:28:52.877Z,100396.86
2018-07-12T07:31:19.860Z,100394.49
2018-07-12T07:33:46.765Z,100395.77
2018-07-12T07:36:13.693Z,100394.89
2018-07-12T07:38:40.896Z,100397.42
2018-07-12T07:41:07.839Z,100400.02
2018-07-12T07:43:34.747Z,100396.41
2018-07-12T07:46:01.650Z,100399.81
2018-07-12T07:48:29.177Z,100401.41
2018-07-12T07:50:56.076Z,100399.87
2018-07-12T07:53:22.980Z,100403.49
2018-07-12T07:55:49.888Z,100402.06
2018-07-12T07:58:16.793Z,100413.49
2018-07-12T08:00:43.694Z,100403.38
2018-07-12T08:03:10.608Z,100397.10
2018-07-12T08:05:38.536Z,100394.76
2018-07-12T08:08:05.823Z,100405.16
2018-07-12T08:10:32.735Z,100399.84
2018-07-12T08:12:59.645Z,100402.39
2018-07-12T08:15:26.539Z,100396.89
2018-07-12T08:17:53.466Z,100398.19
2018-07-12T08:20:21.545Z,100397.34
2018-07-12T08:22:48.465Z,100393.73
2018-07-12T08:25:15.393Z,100397.52
2018-07-12T08:27:53.933Z,100393.03
2018-07-12T08:30:20.832Z,100399.62
2018-07-12T08:32:47.724Z,100404.88
2018-07-12T08:35:15.643Z,100400.38
2018-07-12T08:37:42.540Z,100405.73
2018-07-12T08:40:09.436Z,100409.24
2018-07-12T08:42:36.385Z,100411.31
2018-07-12T08:45:03.231Z,100409.95
2018-07-12T08:47:30.129Z,100409.15
2018-07-12T08:49:57.078Z,100410.54
2018-07-12T08:52:23.977Z,100406.21
2018-07-12T08:54:50.900Z,100412.59
2018-07-12T08:57:17.801Z,100398.48
2018-07-12T08:59:44.715Z,100404.08
2018-07-12T09:02:12.784Z,100394.15
2018-07-12T09:04:39.715Z,100397.79
2018-07-12T09:07:06.708Z,100397.50
2018-07-12T09:09:33.606Z,100402.17
2018-07-12T09:12:00.520Z,100403.80
2018-07-12T09:14:28.325Z,100402.79
2018-07-12T09:16:55.227Z,100403.53
2018-07-12T09:19:22.127Z,100406.22
2018-07-12T09:21:49.084Z,100411.05
2018-07-12T09:24:15.957Z,100413.16
2018-07-12T09:26:42.846Z,100421.10
2018-07-12T09:29:09.776Z,100416.48
2018-07-12T09:31:36.664Z,100410.96
2018-07-12T09:34:03.583Z,100417.23
2018-07-12T09:36:30.619Z,100416.59
2018-07-12T09:38:57.529Z,100409.45
2018-07-12T09:41:24.563Z,100415.80
2018-07-12T09:43:52.170Z,100411.51
2018-07-12T09:46:19.217Z,100404.61
2018-07-12T09:48:47.453Z,100405.77
2018-07-12T09:51:14.756Z,100417.19
2018-07-12T09:53:42.722Z,100406.84
2018-07-12T09:56:09.686Z,100416.89
2018-07-12T09:58:36.525Z,100412.79
2018-07-12T10:01:09.099Z,100408.02
2018-07-12T10:03:41.844Z,100402.66
2018-07-12T10:06:15.558Z,100415.81
2018-07-12T10:08:54.990Z,100416.19
2018-07-12T10:11:27.719Z,100418.84
2018-07-12T10:13:57.426Z,100413.36
2018-07-12T10:16:30.265Z,100407.92
2018-07-12T10:18:57.186Z,100413.66
2018-07-12T10:21:25.807Z,100419.55
2018-07-12T10:23:52.753Z,100410.30
2018-07-12T10:26:19.740Z,100403.63
2018-07-12T10:28:46.763Z,100401.78
2018-07-12T10:31:13.672Z,100407.80
2018-07-12T10:33:40.571Z,100405.02
2018-07-12T10:36:07.469Z,100394.67
2018-07-12T10:38:34.409Z,100403.72
2018-07-12T10:41:01.319Z,100406.48
2018-07-12T10:43:28.227Z,100406.02
2018-07-12T10:45:55.179Z,100398.83
2018-07-12T10:48:22.098Z,100396.09
2018-07-12T10:50:49.024Z,100400.66
2018-07-12T10:53:16.226Z,100411.06
2018-07-12T10:55:43.200Z,100396.73
2018-07-12T10:58:10.095Z,100397.47
2018-07-12T11:00:36.990Z,100386.61
2018-07-12T11:03:03.891Z,100391.44
2018-07-12T11:05:30.782Z,100388.81
2018-07-12T11:07:57.727Z,100393.34
2018-07-12T11:10:24.678Z,100397.98
2018-07-12T11:13:03.365Z,100405.66
2018-07-12T11:15:30.272Z,100398.58
2018-07-12T11:17:57.161Z,100395.00
2018-07-12T11:20:24.080Z,100401.27
2018-07-12T11:22:51.044Z,100394.09
2018-07-12T11:25:18.932Z,100395.69
2018-07-12T11:27:45.818Z,100398.17
2018-07-12T11:30:12.748Z,100402.84
2018-07-12T11:32:39.641Z,100394.64
2018-07-12T11:35:06.637Z,100400.09
2018-07-12T11:37:33.519Z,100398.06
2018-07-12T11:40:00.414Z,100402.55
2018-07-12T11:42:27.323Z,100381.65
2018-07-12T11:44:54.337Z,100388.00
2018-07-12T11:47:21.222Z,100397.02
2018-07-12T11:49:48.115Z,100399.16
2018-07-12T11:52:15.251Z,100396.02
2018-07-12T11:54:42.144Z,100389.39
2018-07-12T11:57:09.039Z,100390.34
2018-07-12T11:59:35.946Z,100378.75
2018-07-12T12:02:02.929Z,100378.14
2018-07-12T12:04:29.859Z,100382.16
2018-07-12T12:06:56.830Z,100384.59
2018-07-12T12:09:23.673Z,100375.72
2018-07-12T12:11:51.084Z,100381.65
2018-07-12T12:14:18.005Z,100388.30
2018-07-12T12:16:44.919Z,100377.67
2018-07-12T12:19:11.848Z,100376.19
2018-07-12T12:21:38.802Z,100379.49
2018-07-12T12:24:05.712Z,100382.76
2018-07-12T12:26:32.604Z,100377.55
2018-07-12T12:29:00.293Z,100370.03
2018-07-12T12:31:29.252Z,100378.27
2018-07-12T12:33:56.153Z,100366.25
2018-07-12T12:36:23.117Z,100364.55
2018-07-12T12:38:50.717Z,100368.69
2018-07-12T12:41:17.827Z,100365.54
2018-07-12T12:43:44.751Z,100373.32
2018-07-12T12:46:11.695Z,100366.39
2018-07-12T12:48:38.697Z,100372.20
2018-07-12T12:51:05.699Z,100376.06
2018-07-12T12:53:32.595Z,100366.70
2018-07-12T12:55:59.503Z,100363.30
2018-07-12T12:58:26.448Z,100359.84
2018-07-12T13:00:53.344Z,100363.83
2018-07-12T13:03:20.244Z,100365.07
2018-07-12T13:05:47.148Z,100364.16
2018-07-12T13:08:14.050Z,100365.09
2018-07-12T13:10:41.971Z,100365.80
2018-07-12T13:13:08.914Z,100357.04
2018-07-12T13:15:35.852Z,100359.69
2018-07-12T13:18:02.767Z,100367.70
2018-07-12T13:20:29.675Z,100358.20
2018-07-12T13:22:56.562Z,100366.23
2018-07-12T13:25:23.498Z,100359.89
2018-07-12T13:27:50.492Z,100364.34
2018-07-12T13:30:17.595Z,100352.52
2018-07-12T13:32:44.569Z,100348.58
2018-07-12T13:35:11.472Z,100345.03
2018-07-12T13:37:38.421Z,100347.44
2018-07-12T13:40:05.339Z,100346.09
2018-07-12T13:42:32.317Z,100353.88
2018-07-12T13:44:59.264Z,100347.11
2018-07-12T13:47:26.187Z,100355.66
2018-07-12T13:49:53.096Z,100360.55
2018-07-12T13:52:19.999Z,100356.47
2018-07-12T13:54:46.965Z,100346.42
2018-07-12T13:57:13.853Z,100358.05
2018-07-12T13:59:40.779Z,100358.89
2018-07-12T14:02:07.700Z,100359.55
2018-07-12T14:04:34.675Z,100356.59
2018-07-12T14:07:01.597Z,100352.67
2018-07-12T14:09:28.488Z,100356.05
2018-07-12T14:11:55.439Z,100356.13
2018-07-12T14:14:22.350Z,100350.91
2018-07-12T14:16:49.273Z,100344.30
2018-07-12T14:19:16.188Z,100347.59
2018-07-12T14:21:43.107Z,100343.91
2018-07-12T14:24:10.012Z,100345.03
2018-07-12T14:26:36.958Z,100333.73
2018-07-12T14:29:03.832Z,100325.40
2018-07-12T14:31:30.759Z,100332.07
2018-07-12T14:33:57.635Z,100320.05
2018-07-12T14:36:24.548Z,100315.78
2018-07-12T14:38:51.520Z,100313.76
2018-07-12T14:41:18.435Z,100319.94
2018-07-12T14:43:45.322Z,100312.16
2018-07-12T14:46:12.208Z,100313.20
2018-07-12T14:48:39.123Z,100310.31
2018-07-12T14:51:06.599Z,100312.17
2018-07-12T14:53:33.491Z,100321.98
2018-07-12T14:56:00.396Z,100322.73
2018-07-12T14:58:27.294Z,100321.13
2018-07-12T15:00:54.346Z,100317.41
2018-07-12T15:03:21.296Z,100324.02
2018-07-12T15:05:48.210Z,100318.94
2018-07-12T15:08:15.208Z,100321.10
2018-07-12T15:10:42.175Z,100317.31
2018-07-12T15:13:09.087Z,100316.03
2018-07-12T15:15:35.982Z,100320.59
2018-07-12T15:18:02.917Z,100327.42
2018-07-12T15:20:29.835Z,100321.14
2018-07-12T15:22:57.487Z,100310.99
2018-07-12T15:25:24.389Z,100302.18
2018-07-12T15:27:54.475Z,100304.85
2018-07-12T15:30:21.986Z,100306.32
2018-07-12T15:32:48.867Z,100306.91
2018-07-12T15:35:15.815Z,100303.42
2018-07-12T15:37:42.724Z,100292.82
2018-07-12T15:40:09.622Z,100293.62
2018-07-12T15:42:36.532Z,100293.82
2018-07-12T15:45:03.937Z,100303.67
2018-07-12T15:47:30.881Z,100300.72
2018-07-12T15:49:57.817Z,100303.19
2018-07-12T15:52:24.717Z,100302.06
2018-07-12T15:54:51.620Z,100293.06
2018-07-12T15:57:18.563Z,100292.03
2018-07-12T15:59:45.480Z,100295.91
2018-07-12T16:02:12.404Z,100293.18
2018-07-12T16:04:39.275Z,100298.94
2018-07-12T16:07:07.275Z,100294.63
2018-07-12T16:09:35.056Z,100296.52
2018-07-12T16:12:02.034Z,100298.92
2018-07-12T16:14:31.221Z,100303.33
2018-07-12T16:16:59.149Z,100295.68
2018-07-12T16:19:26.028Z,100301.69
2018-07-12T16:21:52.940Z,100299.66
2018-07-12T16:24:19.871Z,100303.05
2018-07-12T16:26:46.823Z,100304.23
2018-07-12T16:29:13.704Z,100298.45
2018-07-12T16:31:40.624Z,100295.53
2018-07-12T16:34:07.694Z,100300.43
2018-07-12T16:36:35.555Z,100297.55
2018-07-12T16:39:04.582Z,100293.86
2018-07-12T16:41:32.543Z,100298.64
2018-07-12T16:43:59.459Z,100298.16
2018-07-12T16:46:26.401Z,100295.84
2018-07-12T16:48:53.328Z,100300.61
2018-07-12T16:51:20.215Z,100300.34
2018-07-12T16:53:47.135Z,100299.43
2018-07-12T16:56:14.023Z,100299.46
2018-07-12T16:58:42.011Z,100303.73
2018-07-12T17:01:08.927Z,100309.41
2018-07-12T17:03:35.887Z,100305.41
2018-07-12T17:06:02.842Z,100310.48
2018-07-12T17:08:30.568Z,100294.95
2018-07-12T17:10:57.486Z,100300.92
2018-07-12T17:13:24.372Z,100311.38
2018-07-12T17:15:52.482Z,100311.77
2018-07-12T17:18:22.602Z,100311.88
2018-07-12T17:20:49.590Z,100315.37
2018-07-12T17:23:16.635Z,100312.34
2018-07-12T17:25:43.696Z,100318.14
2018-07-12T17:28:10.737Z,100314.05
2018-07-12T17:30:37.693Z,100313.47
2018-07-12T17:33:05.687Z,100317.64
2018-07-12T17:35:33.695Z,100325.61
2018-07-12T17:38:01.763Z,100315.55
2018-07-12T17:40:28.758Z,100328.73
2018-07-12T17:42:55.668Z,100328.34
2018-07-12T17:45:25.588Z,100324.80
2018-07-12T17:47:52.548Z,100326.16
2018-07-12T17:50:19.524Z,100326.59
2018-07-12T17:52:46.426Z,100324.16
2018-07-12T17:55:22.071Z,100321.52
2018-07-12T17:57:49.174Z,100326.18
2018-07-12T18:00:16.179Z,100323.33
2018-07-12T18:02:43.126Z,100332.30
2018-07-12T18:05:16.722Z,100328.58
2018-07-12T18:07:46.607Z,100324.38
2018-07-12T18:10:13.694Z,100323.95
2018-07-12T18:12:41.681Z,100329.65
2018-07-12T18:15:08.710Z,100326.62
2018-07-12T18:17:35.642Z,100325.56
2018-07-12T18:20:05.962Z,100324.52
2018-07-12T18:22:32.991Z,100330.24
2018-07-12T18:24:59.905Z,100326.01
2018-07-12T18:27:26.798Z,100324.41
2018-07-12T18:29:53.807Z,100328.52
2018-07-12T18:32:20.840Z,100324.82
2018-07-12T18:34:49.860Z,100324.09
2018-07-12T18:37:18.570Z,100329.70
2018-07-12T18:39:45.573Z,100336.61
2018-07-12T18:42:12.691Z,100342.84
2018-07-12T18:44:39.594Z,100342.39
2018-07-12T18:47:06.955Z,100343.70
2018-07-12T18:49:34.219Z,100347.42
2018-07-12T18:52:01.257Z,100343.51
2018-07-12T18:54:29.193Z,100347.28
2018-07-12T18:56:56.084Z,100351.70
2018-07-12T18:59:23.847Z,100354.31
2018-07-12T19:01:53.800Z,100347.67
2018-07-12T19:04:20.703Z,100357.50
2018-07-12T19:06:50.748Z,100354.14
2018-07-12T19:09:17.898Z,100356.80
2018-07-12T19:11:45.876Z,100355.31
2018-07-12T19:14:12.882Z,100353.77
2018-07-12T19:16:39.826Z,100353.09
2018-07-12T19:19:08.149Z,100354.59
2018-07-12T19:21:36.173Z,100361.02
2018-07-12T19:24:03.173Z,100358.16
2018-07-12T19:26:30.247Z,100366.17
2018-07-12T19:28:57.157Z,100361.88
2018-07-12T19:31:25.124Z,100366.35
2018-07-12T19:33:52.105Z,100370.17
2018-07-12T19:36:19.677Z,100372.08
2018-07-12T19:38:46.758Z,100380.84
2018-07-12T19:41:13.727Z,100378.08
2018-07-12T19:43:40.714Z,100382.65
2018-07-12T19:46:14.535Z,100385.97
2018-07-12T19:48:48.989Z,100387.68
2018-07-12T19:51:18.990Z,100391.33
2018-07-12T19:53:45.876Z,100394.56
2018-07-12T19:56:12.792Z,100401.08
2018-07-12T19:58:39.681Z,100404.97
2018-07-12T20:01:06.688Z,100403.01
2018-07-12T20:03:33.677Z,100411.47
2018-07-12T20:06:00.524Z,100412.77
2018-07-12T20:08:27.485Z,100412.27
2018-07-12T20:11:01.974Z,100427.44
2018-07-12T20:13:28.952Z,100424.64
2018-07-12T20:15:55.872Z,100421.34
2018-07-12T20:18:22.842Z,100430.77
2018-07-12T20:20:49.760Z,100431.64
2018-07-12T20:23:16.711Z,100435.57
2018-07-12T20:25:43.607Z,100440.89
2018-07-12T20:28:16.535Z,100433.22
2018-07-12T20:30:43.482Z,100439.83
2018-07-12T20:33:10.421Z,100441.89
2018-07-12T20:35:37.335Z,100437.56
2018-07-12T20:38:04.271Z,100437.31
2018-07-12T20:40:31.203Z,100437.59
2018-07-12T20:42:58.146Z,100438.92
2018-07-12T20:45:25.131Z,100446.59
2018-07-12T20:47:52.161Z,100441.05
2018-07-12T20:50:19.262Z,100449.72
2018-07-12T20:52:45.995Z,100444.80
2018-07-12T20:55:12.979Z,100451.34
2018-07-12T20:57:39.833Z,100450.11
2018-07-12T21:00:06.762Z,100451.85
2018-07-12T21:02:34.054Z,100450.94
2018-07-12T21:05:00.951Z,100450.31
2018-07-12T21:07:27.871Z,100449.09
2018-07-12T21:09:55.769Z,100451.67
2018-07-12T21:12:22.659Z,100454.31
2018-07-12T21:14:49.594Z,100456.52
2018-07-12T21:17:16.493Z,100452.38
2018-07-12T21:19:43.377Z,100457.28
2018-07-12T21:22:10.277Z,100460.17
2018-07-12T21:24:37.177Z,100458.05
2018-07-12T21:27:04.107Z,100459.17
2018-07-12T21:29:31.024Z,100460.49
2018-07-12T21:31:58.044Z,100463.58
2018-07-12T21:34:27.959Z,100462.70
2018-07-12T21:36:54.848Z,100470.58
2018-07-12T21:39:21.800Z,100469.72
2018-07-12T21:41:48.715Z,100466.81
2018-07-12T21:44:15.605Z,100467.47
2018-07-12T21:46:42.508Z,100471.20
2018-07-12T21:49:09.405Z,100470.09
2018-07-12T21:51:36.355Z,100471.34
2018-07-12T21:54:03.258Z,100470.83
2018-07-12T21:56:30.205Z,100467.41
2018-07-12T21:58:57.119Z,100473.22
2018-07-12T22:01:24.049Z,100471.21
2018-07-12T22:03:50.956Z,100472.28
2018-07-12T22:06:26.120Z,100476.30
2018-07-12T22:08:53.635Z,100470.66
2018-07-12T22:11:20.525Z,100468.53
2018-07-12T22:13:47.455Z,100470.82
2018-07-12T22:16:14.384Z,100476.14
2018-07-12T22:18:42.761Z,100473.92
2018-07-12T22:21:09.686Z,100474.58
2018-07-12T22:23:36.681Z,100477.27
2018-07-12T22:26:03.569Z,100482.09
2018-07-12T22:28:31.044Z,100480.03
2018-07-12T22:30:57.945Z,100494.68
2018-07-12T22:33:24.865Z,100484.30
2018-07-12T22:35:51.757Z,100489.92
2018-07-12T22:38:18.647Z,100488.36
2018-07-12T22:40:45.641Z,100489.47
2018-07-12T22:43:12.546Z,100490.97
2018-07-12T22:45:39.450Z,100492.67
2018-07-12T22:48:06.369Z,100483.03
2018-07-12T22:50:33.246Z,100485.61
2018-07-12T22:53:00.139Z,100484.41
2018-07-12T22:55:27.026Z,100477.91
2018-07-12T22:57:53.981Z,100483.72
2018-07-12T23:00:20.878Z,100483.22
2018-07-12T23:02:47.780Z,100483.89
2018-07-12T23:05:14.664Z,100483.53
2018-07-12T23:07:41.683Z,100482.15
2018-07-12T23:10:08.639Z,100482.70
2018-07-12T23:12:35.539Z,100481.77
2018-07-12T23:15:02.496Z,100477.59
2018-07-12T23:17:29.395Z,100480.35
2018-07-12T23:19:56.312Z,100480.72
2018-07-12T23:22:23.258Z,100477.41
2018-07-12T23:24:50.238Z,100478.22
2018-07-12T23:27:17.210Z,100475.48
2018-07-12T23:29:44.482Z,100477.27
2018-07-12T23:32:11.403Z,100481.09
2018-07-12T23:34:38.364Z,100481.27
2018-07-12T23:37:05.295Z,100482.61
2018-07-12T23:39:32.191Z,100491.84
2018-07-12T23:41:59.090Z,100484.57
2018-07-12T23:44:25.994Z,100482.17
2018-07-12T23:46:52.854Z,100480.51
2018-07-12T23:49:20.143Z,100485.27
2018-07-12T23:51:47.039Z,100482.47
2018-07-12T23:54:13.983Z,100488.95
2018-07-12T23:56:40.903Z,100484.97
2018-07-12T23:59:07.808Z,100475.61
